createdAt,value
2018-07-13T00:00:02.405Z,15.98
2018-07-13T00:00:06.614Z,15.99
2018-07-13T00:00:10.823Z,16.04
2018-07-13T00:00:15.085Z,15.95
2018-07-13T00:00:19.286Z,15.93
2018-07-13T00:00:23.596Z,15.91
2018-07-13T00:00:27.913Z,15.89
2018-07-13T00:00:32.125Z,15.95
2018-07-13T00:00:36.435Z,15.93
2018-07-13T00:00:40.644Z,15.88
2018-07-13T00:00:44.845Z,15.93
2018-07-13T00:00:49.056Z,15.95
2018-07-13T00:00:53.366Z,15.92
2018-07-13T00:00:57.570Z,15.89
2018-07-13T00:01:01.779Z,15.92
2018-07-13T00:01:05.922Z,15.93
2018-07-13T00:01:10.244Z,15.93
2018-07-13T00:01:14.468Z,15.99
2018-07-13T00:01:18.676Z,15.95
2018-07-13T00:01:22.880Z,15.93
2018-07-13T00:01:27.195Z,15.93
2018-07-13T00:01:31.399Z,15.92
2018-07-13T00:01:35.730Z,15.93
2018-07-13T00:01:39.935Z,15.92
2018-07-13T00:01:44.250Z,15.92
2018-07-13T00:01:48.564Z,15.91
2018-07-13T00:01:52.878Z,15.85
2018-07-13T00:01:56.878Z,15.88
2018-07-13T00:02:01.204Z,15.96
2018-07-13T00:02:05.460Z,15.92
2018-07-13T00:02:09.346Z,15.88
2018-07-13T00:02:13.662Z,15.89
2018-07-13T00:02:17.872Z,15.86
2018-07-13T00:02:22.183Z,15.91
2018-07-13T00:02:26.237Z,15.85
2018-07-13T00:02:30.547Z,15.96
2018-07-13T00:02:34.755Z,15.95
2018-07-13T00:02:38.959Z,15.88
2018-07-13T00:02:43.160Z,15.91
2018-07-13T00:02:47.359Z,15.95
2018-07-13T00:02:51.671Z,15.91
2018-07-13T00:02:55.985Z,15.89
2018-07-13T00:03:00.293Z,15.86
2018-07-13T00:03:04.508Z,15.96
2018-07-13T00:03:08.498Z,15.85
2018-07-13T00:03:12.815Z,15.89
2018-07-13T00:03:17.024Z,15.95
2018-07-13T00:03:21.224Z,15.93
2018-07-13T00:03:25.532Z,15.92
2018-07-13T00:03:29.633Z,15.84
2018-07-13T00:03:33.942Z,15.88
2018-07-13T00:03:38.160Z,15.95
2018-07-13T00:03:42.511Z,15.96
2018-07-13T00:03:46.711Z,15.91
2018-07-13T00:03:50.814Z,15.92
2018-07-13T00:03:55.031Z,15.91
2018-07-13T00:03:59.263Z,15.89
2018-07-13T00:04:03.252Z,15.92
2018-07-13T00:04:07.466Z,15.98
2018-07-13T00:04:11.558Z,15.91
2018-07-13T00:04:15.654Z,15.89
2018-07-13T00:04:19.971Z,15.93
2018-07-13T00:04:24.173Z,15.92
2018-07-13T00:04:28.386Z,15.89
2018-07-13T00:04:32.703Z,15.92
2018-07-13T00:04:36.904Z,15.93
2018-07-13T00:04:41.100Z,15.98
2018-07-13T00:04:45.298Z,15.93
2018-07-13T00:04:49.501Z,15.92
2018-07-13T00:04:53.805Z,15.98
2018-07-13T00:04:58.132Z,15.95
2018-07-13T00:05:02.367Z,16.01
2018-07-13T00:05:06.374Z,15.92
2018-07-13T00:05:10.585Z,15.92
2018-07-13T00:05:14.791Z,15.96
2018-07-13T00:05:18.994Z,15.93
2018-07-13T00:05:23.311Z,15.99
2018-07-13T00:05:27.521Z,15.95
2018-07-13T00:05:31.738Z,15.93
2018-07-13T00:05:35.942Z,15.93
2018-07-13T00:05:40.042Z,15.91
2018-07-13T00:05:44.031Z,16.01
2018-07-13T00:05:48.353Z,15.95
2018-07-13T00:05:52.671Z,15.93
2018-07-13T00:05:56.877Z,15.96
2018-07-13T00:06:00.972Z,15.93
2018-07-13T00:06:05.187Z,15.88
2018-07-13T00:06:09.289Z,15.93
2018-07-13T00:06:13.605Z,15.88
2018-07-13T00:06:17.851Z,15.96
2018-07-13T00:06:22.055Z,15.91
2018-07-13T00:06:26.259Z,15.96
2018-07-13T00:06:30.565Z,15.92
2018-07-13T00:06:34.772Z,15.92
2018-07-13T00:06:39.072Z,15.89
2018-07-13T00:06:43.277Z,15.95
2018-07-13T00:06:47.480Z,15.99
2018-07-13T00:06:51.791Z,15.99
2018-07-13T00:06:55.892Z,15.93
2018-07-13T00:07:00.106Z,15.93
2018-07-13T00:07:04.426Z,16.01
2018-07-13T00:07:08.746Z,16.01
2018-07-13T00:07:12.845Z,16.04
2018-07-13T00:07:17.052Z,15.92
2018-07-13T00:07:21.254Z,15.95
2018-07-13T00:07:25.466Z,15.93
2018-07-13T00:07:29.823Z,15.98
2018-07-13T00:07:34.041Z,15.99
2018-07-13T00:07:38.244Z,15.95
2018-07-13T00:07:42.565Z,15.93
2018-07-13T00:07:46.883Z,15.95
2018-07-13T00:07:51.091Z,15.98
2018-07-13T00:07:55.289Z,15.93
2018-07-13T00:07:59.493Z,15.98
2018-07-13T00:08:03.699Z,15.98
2018-07-13T00:08:07.833Z,15.98
2018-07-13T00:08:12.135Z,16.01
2018-07-13T00:08:16.338Z,15.98
2018-07-13T00:08:20.536Z,15.99
2018-07-13T00:08:24.740Z,15.98
2018-07-13T00:08:28.943Z,16.01
2018-07-13T00:08:33.248Z,15.99
2018-07-13T00:08:37.386Z,15.95
2018-07-13T00:08:41.480Z,16.03
2018-07-13T00:08:45.684Z,16.07
2018-07-13T00:08:49.998Z,15.99
2018-07-13T00:08:54.302Z,16.04
2018-07-13T00:08:58.503Z,16.06
2018-07-13T00:09:02.713Z,15.93
2018-07-13T00:09:06.915Z,16.06
2018-07-13T00:09:11.235Z,15.96
2018-07-13T00:09:15.442Z,15.98
2018-07-13T00:09:19.648Z,15.96
2018-07-13T00:09:23.743Z,16.04
2018-07-13T00:09:27.732Z,15.99
2018-07-13T00:09:32.043Z,16.08
2018-07-13T00:09:36.350Z,16.06
2018-07-13T00:09:40.669Z,16.01
2018-07-13T00:09:44.874Z,16.14
2018-07-13T00:09:49.089Z,15.91
2018-07-13T00:09:53.440Z,16.11
2018-07-13T00:09:57.668Z,15.92
2018-07-13T00:10:01.999Z,16.04
2018-07-13T00:10:06.148Z,16.03
2018-07-13T00:10:10.469Z,16.06
2018-07-13T00:10:14.780Z,15.98
2018-07-13T00:10:18.884Z,16.04
2018-07-13T00:10:23.186Z,16.06
2018-07-13T00:10:27.187Z,16.03
2018-07-13T00:10:31.291Z,16.07
2018-07-13T00:10:35.595Z,16.01
2018-07-13T00:10:39.796Z,16.01
2018-07-13T00:10:44.002Z,16.01
2018-07-13T00:10:48.210Z,15.91
2018-07-13T00:10:52.304Z,16.13
2018-07-13T00:10:56.557Z,16.1
2018-07-13T00:11:00.769Z,15.98
2018-07-13T00:11:04.781Z,15.98
2018-07-13T00:11:08.881Z,16.08
2018-07-13T00:11:13.196Z,15.99
2018-07-13T00:11:17.186Z,16.07
2018-07-13T00:11:21.388Z,16.06
2018-07-13T00:11:25.699Z,15.99
2018-07-13T00:11:29.899Z,15.99
2018-07-13T00:11:33.994Z,16.01
2018-07-13T00:11:38.269Z,16.04
2018-07-13T00:11:42.580Z,15.99
2018-07-13T00:11:46.681Z,16.01
2018-07-13T00:11:50.884Z,16.13
2018-07-13T00:11:55.090Z,16.08
2018-07-13T00:11:59.291Z,16.06
2018-07-13T00:12:03.393Z,16.07
2018-07-13T00:12:07.600Z,16.08
2018-07-13T00:12:11.799Z,15.99
2018-07-13T00:12:15.788Z,16.07
2018-07-13T00:12:20.096Z,15.99
2018-07-13T00:12:24.403Z,16.04
2018-07-13T00:12:28.604Z,16.03
2018-07-13T00:12:32.915Z,16.08
2018-07-13T00:12:37.054Z,16.01
2018-07-13T00:12:41.263Z,16.01
2018-07-13T00:12:45.463Z,16.01
2018-07-13T00:12:49.674Z,16.07
2018-07-13T00:12:53.871Z,16.13
2018-07-13T00:12:58.078Z,16.01
2018-07-13T00:13:02.281Z,16.01
2018-07-13T00:13:06.486Z,16.08
2018-07-13T00:13:10.691Z,16.01
2018-07-13T00:13:14.791Z,15.98
2018-07-13T00:13:19.134Z,16.06
2018-07-13T00:13:23.341Z,16.1
2018-07-13T00:13:27.543Z,16.14
2018-07-13T00:13:31.741Z,16.06
2018-07-13T00:13:35.953Z,16.01
2018-07-13T00:13:40.048Z,16.03
2018-07-13T00:13:44.141Z,16.03
2018-07-13T00:13:48.341Z,16.07
2018-07-13T00:13:52.437Z,16.01
2018-07-13T00:13:56.532Z,16.01
2018-07-13T00:14:00.634Z,16.04
2018-07-13T00:14:04.623Z,16.01
2018-07-13T00:14:08.991Z,15.98
2018-07-13T00:14:13.200Z,16.04
2018-07-13T00:14:17.504Z,16.11
2018-07-13T00:14:21.718Z,16.08
2018-07-13T00:14:26.029Z,16.01
2018-07-13T00:14:30.024Z,16.06
2018-07-13T00:14:34.242Z,16.06
2018-07-13T00:14:38.338Z,16.07
2018-07-13T00:14:42.435Z,16.04
2018-07-13T00:14:46.425Z,16.07
2018-07-13T00:14:50.632Z,16.01
2018-07-13T00:14:54.941Z,16.03
2018-07-13T00:14:59.149Z,16.07
2018-07-13T00:15:03.245Z,16.03
2018-07-13T00:15:07.470Z,16.03
2018-07-13T00:15:11.784Z,16.07
2018-07-13T00:15:16.098Z,16.04
2018-07-13T00:15:20.418Z,16.04
2018-07-13T00:15:24.625Z,16.07
2018-07-13T00:15:28.939Z,16.04
2018-07-13T00:15:33.143Z,16.08
2018-07-13T00:15:37.345Z,16.04
2018-07-13T00:15:41.447Z,16.06
2018-07-13T00:15:45.549Z,15.96
2018-07-13T00:15:49.648Z,16.03
2018-07-13T00:15:53.863Z,16.04
2018-07-13T00:15:58.197Z,16.06
2018-07-13T00:16:02.352Z,16.04
2018-07-13T00:16:06.345Z,16.07
2018-07-13T00:16:10.680Z,16.03
2018-07-13T00:16:14.883Z,16.08
2018-07-13T00:16:18.979Z,15.99
2018-07-13T00:16:23.181Z,15.99
2018-07-13T00:16:27.387Z,16.06
2018-07-13T00:16:31.690Z,16.1
2018-07-13T00:16:35.995Z,16.08
2018-07-13T00:16:40.204Z,16.03
2018-07-13T00:16:44.300Z,16.17
2018-07-13T00:16:48.612Z,16.07
2018-07-13T00:16:52.708Z,16.16
2018-07-13T00:16:57.017Z,16.16
2018-07-13T00:17:01.329Z,16.08
2018-07-13T00:17:05.325Z,16.17
2018-07-13T00:17:09.527Z,16.13
2018-07-13T00:17:13.731Z,16.17
2018-07-13T00:17:18.042Z,16.13
2018-07-13T00:17:22.142Z,16.17
2018-07-13T00:17:26.344Z,16.16
2018-07-13T00:17:30.548Z,16.16
2018-07-13T00:17:34.858Z,16.17
2018-07-13T00:17:39.065Z,16.13
2018-07-13T00:17:43.267Z,16.11
2018-07-13T00:17:47.471Z,16.14
2018-07-13T00:17:51.670Z,16.1
2018-07-13T00:17:55.979Z,16.14
2018-07-13T00:18:00.293Z,16.18
2018-07-13T00:18:04.385Z,16.22
2018-07-13T00:18:08.481Z,16.18
2018-07-13T00:18:12.575Z,16.23
2018-07-13T00:18:16.783Z,16.14
2018-07-13T00:18:20.874Z,16.22
2018-07-13T00:18:24.974Z,16.22
2018-07-13T00:18:29.173Z,16.18
2018-07-13T00:18:33.478Z,16.16
2018-07-13T00:18:37.693Z,16.16
2018-07-13T00:18:41.788Z,16.18
2018-07-13T00:18:46.003Z,16.22
2018-07-13T00:18:50.099Z,16.34
2018-07-13T00:18:54.298Z,16.22
2018-07-13T00:18:58.504Z,16.13
2018-07-13T00:19:02.867Z,16.14
2018-07-13T00:19:06.856Z,16.26
2018-07-13T00:19:10.847Z,16.22
2018-07-13T00:19:15.211Z,16.22
2018-07-13T00:19:19.525Z,16.29
2018-07-13T00:19:23.729Z,16.25
2018-07-13T00:19:27.615Z,16.26
2018-07-13T00:19:31.924Z,16.25
2018-07-13T00:19:36.134Z,16.23
2018-07-13T00:19:40.333Z,16.18
2018-07-13T00:19:44.326Z,16.27
2018-07-13T00:19:48.418Z,16.23
2018-07-13T00:19:52.627Z,16.29
2018-07-13T00:19:56.728Z,16.27
2018-07-13T00:20:00.933Z,16.23
2018-07-13T00:20:04.825Z,16.22
2018-07-13T00:20:09.134Z,16.27
2018-07-13T00:20:13.448Z,16.29
2018-07-13T00:20:17.546Z,16.3
2018-07-13T00:20:21.752Z,16.26
2018-07-13T00:20:26.066Z,16.32
2018-07-13T00:20:30.381Z,16.29
2018-07-13T00:20:34.498Z,16.29
2018-07-13T00:20:38.695Z,16.37
2018-07-13T00:20:42.913Z,16.32
2018-07-13T00:20:47.118Z,16.3
2018-07-13T00:20:51.214Z,16.27
2018-07-13T00:20:55.413Z,16.27
2018-07-13T00:20:59.508Z,16.36
2018-07-13T00:21:03.503Z,16.29
2018-07-13T00:21:07.492Z,16.3
2018-07-13T00:21:11.486Z,16.32
2018-07-13T00:21:15.692Z,16.33
2018-07-13T00:21:19.786Z,16.33
2018-07-13T00:21:24.001Z,16.34
2018-07-13T00:21:28.092Z,16.3
2018-07-13T00:21:32.306Z,16.4
2018-07-13T00:21:36.628Z,16.37
2018-07-13T00:21:40.941Z,16.3
2018-07-13T00:21:45.141Z,16.41
2018-07-13T00:21:49.350Z,16.26
2018-07-13T00:21:53.459Z,16.32
2018-07-13T00:21:57.801Z,16.41
2018-07-13T00:22:02.159Z,16.36
2018-07-13T00:22:06.146Z,16.41
2018-07-13T00:22:10.243Z,16.36
2018-07-13T00:22:14.550Z,16.27
2018-07-13T00:22:18.544Z,16.36
2018-07-13T00:22:22.652Z,16.34
2018-07-13T00:22:26.867Z,16.42
2018-07-13T00:22:30.960Z,16.32
2018-07-13T00:22:35.274Z,16.4
2018-07-13T00:22:39.479Z,16.34
2018-07-13T00:22:43.687Z,16.36
2018-07-13T00:22:47.896Z,16.34
2018-07-13T00:22:51.994Z,16.41
2018-07-13T00:22:56.195Z,16.37
2018-07-13T00:23:00.289Z,16.4
2018-07-13T00:23:04.507Z,16.36
2018-07-13T00:23:08.712Z,16.36
2018-07-13T00:23:13.026Z,16.37
2018-07-13T00:23:17.127Z,16.4
2018-07-13T00:23:21.446Z,16.34
2018-07-13T00:23:25.763Z,16.44
2018-07-13T00:23:29.757Z,16.33
2018-07-13T00:23:34.065Z,16.4
2018-07-13T00:23:38.370Z,16.42
2018-07-13T00:23:42.690Z,16.3
2018-07-13T00:23:46.679Z,16.34
2018-07-13T00:23:50.879Z,16.34
2018-07-13T00:23:55.183Z,16.32
2018-07-13T00:23:59.286Z,16.36
2018-07-13T00:24:03.500Z,16.37
2018-07-13T00:24:07.707Z,16.36
2018-07-13T00:24:12.014Z,16.34
2018-07-13T00:24:16.218Z,16.41
2018-07-13T00:24:20.581Z,16.36
2018-07-13T00:24:24.891Z,16.4
2018-07-13T00:24:29.215Z,16.34
2018-07-13T00:24:33.313Z,16.37
2018-07-13T00:24:37.620Z,16.3
2018-07-13T00:24:41.929Z,16.4
2018-07-13T00:24:46.135Z,16.33
2018-07-13T00:24:50.128Z,16.26
2018-07-13T00:24:54.224Z,16.41
2018-07-13T00:24:58.319Z,16.32
2018-07-13T00:25:02.638Z,16.33
2018-07-13T00:25:06.843Z,16.42
2018-07-13T00:25:11.154Z,16.34
2018-07-13T00:25:15.462Z,16.3
2018-07-13T00:25:19.665Z,16.4
2018-07-13T00:25:23.971Z,16.3
2018-07-13T00:25:27.957Z,16.5
2018-07-13T00:25:32.161Z,16.33
2018-07-13T00:25:36.262Z,16.36
2018-07-13T00:25:40.575Z,16.47
2018-07-13T00:25:44.669Z,16.33
2018-07-13T00:25:48.764Z,16.33
2018-07-13T00:25:52.979Z,16.47
2018-07-13T00:25:57.078Z,16.4
2018-07-13T00:26:01.282Z,16.4
2018-07-13T00:26:05.209Z,16.36
2018-07-13T00:26:09.206Z,16.34
2018-07-13T00:26:13.411Z,16.36
2018-07-13T00:26:17.515Z,16.41
2018-07-13T00:26:21.840Z,16.36
2018-07-13T00:26:26.042Z,16.36
2018-07-13T00:26:30.141Z,16.41
2018-07-13T00:26:34.457Z,16.32
2018-07-13T00:26:38.772Z,16.36
2018-07-13T00:26:43.081Z,16.44
2018-07-13T00:26:47.286Z,16.33
2018-07-13T00:26:51.496Z,16.45
2018-07-13T00:26:55.698Z,16.32
2018-07-13T00:26:59.899Z,16.5
2018-07-13T00:27:03.891Z,16.37
2018-07-13T00:27:07.987Z,16.36
2018-07-13T00:27:11.977Z,16.34
2018-07-13T00:27:16.182Z,16.37
2018-07-13T00:27:20.491Z,16.34
2018-07-13T00:27:24.480Z,16.36
2018-07-13T00:27:28.693Z,16.37
2018-07-13T00:27:33.005Z,16.37
2018-07-13T00:27:37.108Z,16.36
2018-07-13T00:27:41.320Z,16.47
2018-07-13T00:27:45.538Z,16.37
2018-07-13T00:27:49.745Z,16.45
2018-07-13T00:27:54.070Z,16.4
2018-07-13T00:27:58.412Z,16.4
2018-07-13T00:28:02.506Z,16.41
2018-07-13T00:28:06.714Z,16.41
2018-07-13T00:28:10.919Z,16.44
2018-07-13T00:28:15.139Z,16.36
2018-07-13T00:28:19.133Z,16.45
2018-07-13T00:28:23.338Z,16.4
2018-07-13T00:28:27.535Z,16.48
2018-07-13T00:28:31.637Z,16.37
2018-07-13T00:28:35.839Z,16.45
2018-07-13T00:28:40.144Z,16.36
2018-07-13T00:28:44.350Z,16.4
2018-07-13T00:28:48.553Z,16.47
2018-07-13T00:28:52.650Z,16.37
2018-07-13T00:28:56.746Z,16.37
2018-07-13T00:29:00.950Z,16.41
2018-07-13T00:29:05.047Z,16.48
2018-07-13T00:29:09.155Z,16.36
2018-07-13T00:29:13.257Z,16.37
2018-07-13T00:29:17.570Z,16.45
2018-07-13T00:29:21.776Z,16.47
2018-07-13T00:29:25.982Z,16.41
2018-07-13T00:29:30.182Z,16.48
2018-07-13T00:29:34.280Z,16.36
2018-07-13T00:29:38.482Z,16.37
2018-07-13T00:29:42.609Z,16.51
2018-07-13T00:29:46.818Z,16.37
2018-07-13T00:29:51.129Z,16.36
2018-07-13T00:29:55.326Z,16.41
2018-07-13T00:29:59.427Z,16.5
2018-07-13T00:30:03.530Z,16.51
2018-07-13T00:30:07.733Z,16.47
2018-07-13T00:30:11.939Z,16.47
2018-07-13T00:30:16.149Z,16.5
2018-07-13T00:30:20.352Z,16.4
2018-07-13T00:30:24.337Z,16.37
2018-07-13T00:30:28.540Z,16.34
2018-07-13T00:30:32.644Z,16.4
2018-07-13T00:30:36.754Z,16.5
2018-07-13T00:30:40.846Z,16.47
2018-07-13T00:30:45.053Z,16.47
2018-07-13T00:30:49.145Z,16.48
2018-07-13T00:30:53.345Z,16.42
2018-07-13T00:30:57.445Z,16.42
2018-07-13T00:31:01.649Z,16.47
2018-07-13T00:31:05.754Z,16.48
2018-07-13T00:31:09.968Z,16.37
2018-07-13T00:31:14.174Z,16.41
2018-07-13T00:31:18.388Z,16.44
2018-07-13T00:31:22.591Z,16.47
2018-07-13T00:31:26.800Z,16.45
2018-07-13T00:31:31.005Z,16.47
2018-07-13T00:31:35.218Z,16.47
2018-07-13T00:31:39.420Z,16.48
2018-07-13T00:31:43.743Z,16.37
2018-07-13T00:31:48.071Z,16.4
2018-07-13T00:31:52.275Z,16.47
2018-07-13T00:31:56.476Z,16.41
2018-07-13T00:32:00.697Z,16.48
2018-07-13T00:32:04.904Z,16.37
2018-07-13T00:32:08.679Z,16.47
2018-07-13T00:32:12.882Z,16.47
2018-07-13T00:32:17.241Z,16.42
2018-07-13T00:32:21.455Z,16.44
2018-07-13T00:32:25.771Z,16.42
2018-07-13T00:32:30.090Z,16.47
2018-07-13T00:32:34.416Z,16.51
2018-07-13T00:32:38.725Z,16.47
2018-07-13T00:32:42.932Z,16.48
2018-07-13T00:32:47.134Z,16.47
2018-07-13T00:32:51.447Z,16.44
2018-07-13T00:32:55.653Z,16.47
2018-07-13T00:32:59.852Z,16.44
2018-07-13T00:33:03.842Z,16.42
2018-07-13T00:33:08.049Z,16.48
2018-07-13T00:33:12.153Z,16.34
2018-07-13T00:33:16.355Z,16.45
2018-07-13T00:33:20.557Z,16.42
2018-07-13T00:33:24.758Z,16.4
2018-07-13T00:33:28.961Z,16.37
2018-07-13T00:33:33.272Z,16.36
2018-07-13T00:33:37.579Z,16.37
2018-07-13T00:33:41.781Z,16.36
2018-07-13T00:33:45.875Z,16.34
2018-07-13T00:33:50.184Z,16.33
2018-07-13T00:33:54.172Z,16.37
2018-07-13T00:33:58.368Z,16.37
2018-07-13T00:34:02.466Z,16.4
2018-07-13T00:34:06.465Z,16.42
2018-07-13T00:34:10.786Z,16.34
2018-07-13T00:34:14.996Z,16.32
2018-07-13T00:34:19.303Z,16.33
2018-07-13T00:34:23.618Z,16.36
2018-07-13T00:34:27.926Z,16.4
2018-07-13T00:34:32.236Z,16.33
2018-07-13T00:34:36.440Z,16.42
2018-07-13T00:34:40.746Z,16.32
2018-07-13T00:34:44.961Z,16.37
2018-07-13T00:34:49.055Z,16.34
2018-07-13T00:34:53.199Z,16.27
2018-07-13T00:34:57.428Z,16.47
2018-07-13T00:35:01.760Z,16.33
2018-07-13T00:35:05.656Z,16.36
2018-07-13T00:35:09.752Z,16.37
2018-07-13T00:35:13.951Z,16.32
2018-07-13T00:35:18.291Z,16.37
2018-07-13T00:35:22.498Z,16.34
2018-07-13T00:35:26.811Z,16.37
2018-07-13T00:35:31.116Z,16.33
2018-07-13T00:35:35.321Z,16.3
2018-07-13T00:35:39.634Z,16.47
2018-07-13T00:35:43.841Z,16.3
2018-07-13T00:35:48.153Z,16.32
2018-07-13T00:35:52.360Z,16.33
2018-07-13T00:35:56.670Z,16.41
2018-07-13T00:36:00.873Z,16.45
2018-07-13T00:36:04.865Z,16.29
2018-07-13T00:36:08.961Z,16.45
2018-07-13T00:36:12.965Z,16.36
2018-07-13T00:36:17.065Z,16.45
2018-07-13T00:36:21.398Z,16.42
2018-07-13T00:36:25.498Z,16.4
2018-07-13T00:36:29.702Z,16.4
2018-07-13T00:36:33.909Z,16.4
2018-07-13T00:36:38.267Z,16.37
2018-07-13T00:36:42.580Z,16.37
2018-07-13T00:36:46.895Z,16.32
2018-07-13T00:36:51.106Z,16.41
2018-07-13T00:36:55.416Z,16.32
2018-07-13T00:36:59.620Z,16.34
2018-07-13T00:37:03.714Z,16.37
2018-07-13T00:37:07.807Z,16.37
2018-07-13T00:37:12.118Z,16.37
2018-07-13T00:37:16.430Z,16.32
2018-07-13T00:37:20.631Z,16.37
2018-07-13T00:37:24.947Z,16.36
2018-07-13T00:37:29.263Z,16.33
2018-07-13T00:37:33.573Z,16.32
2018-07-13T00:37:37.877Z,16.37
2018-07-13T00:37:41.979Z,16.22
2018-07-13T00:37:46.084Z,16.32
2018-07-13T00:37:50.388Z,16.32
2018-07-13T00:37:54.595Z,16.3
2018-07-13T00:37:58.801Z,16.32
2018-07-13T00:38:03.006Z,16.32
2018-07-13T00:38:06.889Z,16.29
2018-07-13T00:38:11.094Z,16.32
2018-07-13T00:38:15.297Z,16.29
2018-07-13T00:38:19.516Z,16.27
2018-07-13T00:38:23.609Z,16.22
2018-07-13T00:38:27.808Z,16.32
2018-07-13T00:38:32.013Z,16.36
2018-07-13T00:38:36.107Z,16.22
2018-07-13T00:38:40.410Z,16.3
2018-07-13T00:38:44.507Z,16.29
2018-07-13T00:38:48.720Z,16.25
2018-07-13T00:38:52.725Z,16.22
2018-07-13T00:38:56.924Z,16.14
2018-07-13T00:39:01.232Z,16.25
2018-07-13T00:39:05.113Z,16.26
2018-07-13T00:39:09.316Z,16.23
2018-07-13T00:39:13.528Z,16.14
2018-07-13T00:39:17.901Z,16.22
2018-07-13T00:39:22.108Z,16.22
2018-07-13T00:39:26.307Z,16.18
2018-07-13T00:39:30.298Z,16.18
2018-07-13T00:39:34.501Z,16.11
2018-07-13T00:39:38.708Z,16.13
2018-07-13T00:39:42.803Z,16.11
2018-07-13T00:39:47.298Z,16.17
2018-07-13T00:39:51.620Z,16.13
2018-07-13T00:39:55.518Z,16.1
2018-07-13T00:39:59.831Z,16.01
2018-07-13T00:40:04.146Z,16.01
2018-07-13T00:40:08.367Z,16.06
2018-07-13T00:40:12.677Z,16.08
2018-07-13T00:40:16.877Z,16.07
2018-07-13T00:40:21.073Z,16.04
2018-07-13T00:40:25.170Z,16.04
2018-07-13T00:40:29.377Z,16.03
2018-07-13T00:40:33.583Z,16.06
2018-07-13T00:40:37.897Z,16.06
2018-07-13T00:40:42.099Z,15.99
2018-07-13T00:40:46.408Z,16.01
2018-07-13T00:40:50.609Z,16.18
2018-07-13T00:40:54.820Z,16.07
2018-07-13T00:40:59.030Z,16.04
2018-07-13T00:41:03.241Z,16.07
2018-07-13T00:41:07.337Z,16.1
2018-07-13T00:41:11.656Z,16.03
2018-07-13T00:41:15.856Z,16.03
2018-07-13T00:41:20.071Z,16.01
2018-07-13T00:41:24.387Z,16.06
2018-07-13T00:41:28.489Z,16.06
2018-07-13T00:41:32.698Z,15.99
2018-07-13T00:41:37.014Z,16.04
2018-07-13T00:41:41.229Z,16.01
2018-07-13T00:41:45.440Z,16.06
2018-07-13T00:41:49.429Z,15.99
2018-07-13T00:41:53.739Z,16.07
2018-07-13T00:41:57.841Z,16.1
2018-07-13T00:42:01.941Z,16.13
2018-07-13T00:42:06.151Z,15.95
2018-07-13T00:42:10.253Z,16.11
2018-07-13T00:42:14.371Z,16.06
2018-07-13T00:42:18.578Z,15.98
2018-07-13T00:42:22.891Z,16.07
2018-07-13T00:42:27.218Z,16.03
2018-07-13T00:42:31.567Z,16.01
2018-07-13T00:42:35.884Z,15.96
2018-07-13T00:42:40.209Z,16.03
2018-07-13T00:42:44.411Z,16.07
2018-07-13T00:42:48.610Z,15.99
2018-07-13T00:42:52.938Z,15.99
2018-07-13T00:42:57.057Z,15.95
2018-07-13T00:43:01.194Z,15.98
2018-07-13T00:43:05.399Z,15.96
2018-07-13T00:43:09.609Z,15.99
2018-07-13T00:43:13.712Z,15.96
2018-07-13T00:43:17.910Z,15.95
2018-07-13T00:43:22.218Z,15.89
2018-07-13T00:43:26.436Z,15.93
2018-07-13T00:43:30.753Z,15.93
2018-07-13T00:43:34.961Z,15.96
2018-07-13T00:43:39.171Z,15.98
2018-07-13T00:43:43.385Z,15.91
2018-07-13T00:43:47.588Z,15.93
2018-07-13T00:43:51.895Z,15.96
2018-07-13T00:43:56.099Z,15.96
2018-07-13T00:44:00.304Z,15.95
2018-07-13T00:44:04.612Z,15.98
2018-07-13T00:44:08.711Z,15.99
2018-07-13T00:44:13.029Z,15.89
2018-07-13T00:44:17.345Z,15.95
2018-07-13T00:44:21.657Z,15.95
2018-07-13T00:44:25.778Z,15.91
2018-07-13T00:44:29.980Z,15.89
2018-07-13T00:44:34.293Z,15.93
2018-07-13T00:44:38.607Z,15.88
2018-07-13T00:44:42.606Z,15.89
2018-07-13T00:44:46.921Z,15.98
2018-07-13T00:44:51.016Z,15.95
2018-07-13T00:44:55.327Z,15.95
2018-07-13T00:44:59.432Z,15.91
2018-07-13T00:45:03.450Z,15.95
2018-07-13T00:45:07.649Z,15.95
2018-07-13T00:45:11.962Z,15.84
2018-07-13T00:45:16.275Z,15.89
2018-07-13T00:45:20.368Z,15.89
2018-07-13T00:45:24.686Z,15.85
2018-07-13T00:45:28.789Z,15.84
2018-07-13T00:45:32.992Z,15.84
2018-07-13T00:45:36.978Z,15.85
2018-07-13T00:45:41.184Z,15.86
2018-07-13T00:45:45.493Z,15.95
2018-07-13T00:45:49.820Z,15.86
2018-07-13T00:45:54.136Z,15.92
2018-07-13T00:45:58.248Z,15.88
2018-07-13T00:46:02.560Z,15.86
2018-07-13T00:46:06.450Z,15.92
2018-07-13T00:46:10.768Z,15.86
2018-07-13T00:46:14.978Z,15.91
2018-07-13T00:46:19.080Z,15.88
2018-07-13T00:46:23.069Z,15.86
2018-07-13T00:46:27.377Z,15.85
2018-07-13T00:46:31.470Z,15.84
2018-07-13T00:46:35.686Z,15.85
2018-07-13T00:46:40.002Z,15.91
2018-07-13T00:46:44.105Z,15.89
2018-07-13T00:46:48.420Z,15.86
2018-07-13T00:46:52.514Z,15.88
2018-07-13T00:46:56.504Z,15.76
2018-07-13T00:47:00.604Z,15.86
2018-07-13T00:47:04.487Z,15.88
2018-07-13T00:47:08.368Z,15.91
2018-07-13T00:47:12.574Z,15.81
2018-07-13T00:47:16.885Z,15.86
2018-07-13T00:47:21.092Z,15.81
2018-07-13T00:47:25.407Z,15.78
2018-07-13T00:47:29.626Z,15.85
2018-07-13T00:47:33.725Z,15.81
2018-07-13T00:47:38.036Z,15.85
2018-07-13T00:47:42.251Z,15.85
2018-07-13T00:47:46.463Z,15.73
2018-07-13T00:47:50.664Z,15.76
2018-07-13T00:47:54.651Z,15.78
2018-07-13T00:47:58.862Z,15.76
2018-07-13T00:48:02.904Z,15.8
2018-07-13T00:48:06.892Z,15.85
2018-07-13T00:48:10.986Z,15.77
2018-07-13T00:48:15.201Z,15.77
2018-07-13T00:48:19.518Z,15.77
2018-07-13T00:48:23.841Z,15.8
2018-07-13T00:48:28.099Z,15.78
2018-07-13T00:48:32.301Z,15.85
2018-07-13T00:48:36.501Z,15.78
2018-07-13T00:48:40.593Z,15.81
2018-07-13T00:48:44.900Z,15.76
2018-07-13T00:48:48.998Z,15.85
2018-07-13T00:48:53.107Z,15.8
2018-07-13T00:48:57.387Z,15.78
2018-07-13T00:49:01.387Z,15.78
2018-07-13T00:49:05.593Z,15.78
2018-07-13T00:49:09.760Z,15.78
2018-07-13T00:49:14.074Z,15.8
2018-07-13T00:49:18.279Z,15.84
2018-07-13T00:49:22.588Z,15.76
2018-07-13T00:49:26.589Z,15.84
2018-07-13T00:49:30.699Z,15.77
2018-07-13T00:49:35.010Z,15.8
2018-07-13T00:49:39.211Z,15.81
2018-07-13T00:49:43.532Z,15.81
2018-07-13T00:49:47.630Z,15.85
2018-07-13T00:49:51.941Z,15.78
2018-07-13T00:49:56.151Z,15.8
2018-07-13T00:50:00.470Z,15.8
2018-07-13T00:50:04.685Z,15.73
2018-07-13T00:50:08.675Z,15.74
2018-07-13T00:50:12.674Z,15.77
2018-07-13T00:50:16.877Z,15.77
2018-07-13T00:50:20.979Z,15.74
2018-07-13T00:50:24.964Z,15.73
2018-07-13T00:50:29.274Z,15.67
2018-07-13T00:50:33.481Z,15.71
2018-07-13T00:50:37.802Z,15.81
2018-07-13T00:50:42.005Z,15.84
2018-07-13T00:50:46.207Z,15.77
2018-07-13T00:50:50.430Z,15.64
2018-07-13T00:50:54.528Z,15.76
2018-07-13T00:50:58.731Z,15.7
2018-07-13T00:51:02.808Z,15.8
2018-07-13T00:51:06.800Z,15.71
2018-07-13T00:51:10.785Z,15.7
2018-07-13T00:51:14.805Z,15.71
2018-07-13T00:51:18.903Z,15.74
2018-07-13T00:51:23.210Z,15.74
2018-07-13T00:51:27.304Z,15.71
2018-07-13T00:51:31.621Z,15.71
2018-07-13T00:51:35.927Z,15.78
2018-07-13T00:51:40.150Z,15.76
2018-07-13T00:51:44.461Z,15.73
2018-07-13T00:51:48.555Z,15.71
2018-07-13T00:51:52.757Z,15.71
2018-07-13T00:51:57.066Z,15.68
2018-07-13T00:52:01.382Z,15.76
2018-07-13T00:52:05.480Z,15.71
2018-07-13T00:52:09.578Z,15.68
2018-07-13T00:52:13.890Z,15.73
2018-07-13T00:52:18.203Z,15.68
2018-07-13T00:52:22.304Z,15.74
2018-07-13T00:52:26.403Z,15.73
2018-07-13T00:52:30.608Z,15.68
2018-07-13T00:52:34.805Z,15.73
2018-07-13T00:52:39.006Z,15.73
2018-07-13T00:52:43.213Z,15.74
2018-07-13T00:52:47.412Z,15.78
2018-07-13T00:52:51.511Z,15.7
2018-07-13T00:52:55.715Z,15.73
2018-07-13T00:52:59.810Z,15.7
2018-07-13T00:53:03.903Z,15.68
2018-07-13T00:53:08.108Z,15.73
2018-07-13T00:53:12.337Z,15.71
2018-07-13T00:53:16.540Z,15.7
2018-07-13T00:53:20.855Z,15.7
2018-07-13T00:53:25.158Z,15.77
2018-07-13T00:53:29.146Z,15.74
2018-07-13T00:53:33.249Z,15.7
2018-07-13T00:53:37.561Z,15.73
2018-07-13T00:53:41.655Z,15.8
2018-07-13T00:53:45.966Z,15.71
2018-07-13T00:53:50.061Z,15.76
2018-07-13T00:53:54.264Z,15.71
2018-07-13T00:53:58.467Z,15.7
2018-07-13T00:54:02.595Z,15.76
2018-07-13T00:54:06.802Z,15.74
2018-07-13T00:54:10.899Z,15.71